sensor_id;sensor_type;location;lat;lon;timestamp;P1;durP1;ratioP1;P2;durP2;ratioP2
63050;SDS011;49136;47.416;19.402;2024-02-28T00:00:46;97.95;;;93.05;;
63050;SDS011;49136;47.416;19.402;2024-02-28T00:03:12;108.30;;;102.45;;
63050;SDS011;49136;47.416;19.402;2024-02-28T00:05:37;96.43;;;91.53;;
63050;SDS011;49136;47.416;19.402;2024-02-28T00:08:03;89.85;;;85.32;;
63050;SDS011;49136;47.416;19.402;2024-02-28T00:10:29;90.00;;;85.45;;
63050;SDS011;49136;47.416;19.402;2024-02-28T00:12:54;112.57;;;107.07;;
63050;SDS011;49136;47.416;19.402;2024-02-28T00:15:20;108.05;;;102.65;;
63050;SDS011;49136;47.416;19.402;2024-02-28T00:17:45;92.93;;;88.25;;
63050;SDS011;49136;47.416;19.402;2024-02-28T00:20:11;95.28;;;90.53;;
63050;SDS011;49136;47.416;19.402;2024-02-28T00:22:37;110.35;;;104.70;;
63050;SDS011;49136;47.416;19.402;2024-02-28T00:25:03;116.68;;;110.50;;
63050;SDS011;49136;47.416;19.402;2024-02-28T00:27:31;97.88;;;92.75;;
63050;SDS011;49136;47.416;19.402;2024-02-28T00:29:57;120.60;;;114.53;;
63050;SDS011;49136;47.416;19.402;2024-02-28T00:32:22;152.93;;;145.18;;
63050;SDS011;49136;47.416;19.402;2024-02-28T00:34:48;112.20;;;106.38;;
63050;SDS011;49136;47.416;19.402;2024-02-28T00:37:13;139.98;;;132.82;;
63050;SDS011;49136;47.416;19.402;2024-02-28T00:39:39;96.75;;;92.03;;
63050;SDS011;49136;47.416;19.402;2024-02-28T00:42:04;96.40;;;91.63;;
63050;SDS011;49136;47.416;19.402;2024-02-28T00:44:30;223.93;;;212.40;;
63050;SDS011;49136;47.416;19.402;2024-02-28T00:46:55;110.25;;;104.63;;
63050;SDS011;49136;47.416;19.402;2024-02-28T00:49:21;139.98;;;133.10;;
63050;SDS011;49136;47.416;19.402;2024-02-28T00:51:47;167.90;;;158.70;;
63050;SDS011;49136;47.416;19.402;2024-02-28T00:54:12;133.05;;;126.25;;
63050;SDS011;49136;47.416;19.402;2024-02-28T00:56:38;151.73;;;144.13;;
63050;SDS011;49136;47.416;19.402;2024-02-28T00:59:03;163.73;;;154.75;;
63050;SDS011;49136;47.416;19.402;2024-02-28T01:01:28;208.40;;;197.95;;
63050;SDS011;49136;47.416;19.402;2024-02-28T01:03:54;197.30;;;187.60;;
63050;SDS011;49136;47.416;19.402;2024-02-28T01:06:19;199.38;;;189.50;;
63050;SDS011;49136;47.416;19.402;2024-02-28T01:08:45;196.00;;;186.20;;
63050;SDS011;49136;47.416;19.402;2024-02-28T01:11:10;191.40;;;181.65;;
63050;SDS011;49136;47.416;19.402;2024-02-28T01:13:35;207.38;;;197.05;;
63050;SDS011;49136;47.416;19.402;2024-02-28T01:16:01;231.57;;;220.00;;
63050;SDS011;49136;47.416;19.402;2024-02-28T01:18:26;196.77;;;186.77;;
63050;SDS011;49136;47.416;19.402;2024-02-28T01:20:55;231.63;;;219.85;;
63050;SDS011;49136;47.416;19.402;2024-02-28T01:23:21;238.27;;;226.30;;
63050;SDS011;49136;47.416;19.402;2024-02-28T01:25:46;233.63;;;221.90;;
63050;SDS011;49136;47.416;19.402;2024-02-28T01:28:12;237.52;;;225.63;;
63050;SDS011;49136;47.416;19.402;2024-02-28T01:30:37;251.55;;;238.90;;
63050;SDS011;49136;47.416;19.402;2024-02-28T01:33:03;245.98;;;233.65;;
63050;SDS011;49136;47.416;19.402;2024-02-28T01:35:29;257.52;;;244.63;;
63050;SDS011;49136;47.416;19.402;2024-02-28T01:37:54;271.80;;;258.00;;
63050;SDS011;49136;47.416;19.402;2024-02-28T01:40:19;259.13;;;246.18;;
63050;SDS011;49136;47.416;19.402;2024-02-28T01:42:46;258.70;;;245.77;;
63050;SDS011;49136;47.416;19.402;2024-02-28T01:45:12;259.27;;;246.20;;
63050;SDS011;49136;47.416;19.402;2024-02-28T01:47:39;280.50;;;266.23;;
63050;SDS011;49136;47.416;19.402;2024-02-28T01:50:09;270.48;;;257.05;;
63050;SDS011;49136;47.416;19.402;2024-02-28T01:52:36;293.20;;;278.55;;
63050;SDS011;49136;47.416;19.402;2024-02-28T01:55:02;286.27;;;271.88;;
63050;SDS011;49136;47.416;19.402;2024-02-28T01:57:28;294.02;;;279.10;;
63050;SDS011;49136;47.416;19.402;2024-02-28T01:59:54;300.05;;;285.10;;
63050;SDS011;49136;47.416;19.402;2024-02-28T02:02:21;290.58;;;276.10;;
63050;SDS011;49136;47.416;19.402;2024-02-28T02:04:46;295.48;;;280.58;;
63050;SDS011;49136;47.416;19.402;2024-02-28T02:07:12;313.88;;;298.00;;
63050;SDS011;49136;47.416;19.402;2024-02-28T02:09:37;301.60;;;286.48;;
63050;SDS011;49136;47.416;19.402;2024-02-28T02:12:03;193.82;;;184.60;;
63050;SDS011;49136;47.416;19.402;2024-02-28T02:14:28;162.38;;;154.73;;
63050;SDS011;49136;47.416;19.402;2024-02-28T02:16:54;157.38;;;149.77;;
63050;SDS011;49136;47.416;19.402;2024-02-28T02:19:19;172.10;;;163.75;;
63050;SDS011;49136;47.416;19.402;2024-02-28T02:21:56;145.48;;;138.57;;
63050;SDS011;49136;47.416;19.402;2024-02-28T02:24:23;110.20;;;105.00;;
63050;SDS011;49136;47.416;19.402;2024-02-28T02:26:49;129.95;;;123.93;;
63050;SDS011;49136;47.416;19.402;2024-02-28T02:29:17;231.38;;;219.80;;
63050;SDS011;49136;47.416;19.402;2024-02-28T02:31:42;246.52;;;234.48;;
63050;SDS011;49136;47.416;19.402;2024-02-28T02:34:08;246.98;;;234.73;;
63050;SDS011;49136;47.416;19.402;2024-02-28T02:36:33;251.02;;;238.18;;
63050;SDS011;49136;47.416;19.402;2024-02-28T02:38:59;247.15;;;235.15;;
63050;SDS011;49136;47.416;19.402;2024-02-28T02:41:24;247.48;;;235.40;;
63050;SDS011;49136;47.416;19.402;2024-02-28T02:43:50;261.13;;;248.27;;
63050;SDS011;49136;47.416;19.402;2024-02-28T02:46:15;273.65;;;259.88;;
63050;SDS011;49136;47.416;19.402;2024-02-28T02:48:41;264.60;;;251.52;;
63050;SDS011;49136;47.416;19.402;2024-02-28T02:51:06;284.30;;;269.10;;
63050;SDS011;49136;47.416;19.402;2024-02-28T02:53:31;273.58;;;259.98;;
63050;SDS011;49136;47.416;19.402;2024-02-28T02:55:57;282.02;;;268.05;;
63050;SDS011;49136;47.416;19.402;2024-02-28T02:58:22;255.35;;;242.80;;
63050;SDS011;49136;47.416;19.402;2024-02-28T03:00:48;262.08;;;249.13;;
63050;SDS011;49136;47.416;19.402;2024-02-28T03:03:13;268.17;;;254.90;;
63050;SDS011;49136;47.416;19.402;2024-02-28T03:05:38;277.45;;;263.83;;
63050;SDS011;49136;47.416;19.402;2024-02-28T03:08:04;266.52;;;253.23;;
63050;SDS011;49136;47.416;19.402;2024-02-28T03:10:29;266.00;;;252.63;;
63050;SDS011;49136;47.416;19.402;2024-02-28T03:12:55;291.17;;;276.60;;
63050;SDS011;49136;47.416;19.402;2024-02-28T03:15:20;291.02;;;276.55;;
63050;SDS011;49136;47.416;19.402;2024-02-28T03:17:46;279.83;;;265.92;;
63050;SDS011;49136;47.416;19.402;2024-02-28T03:20:11;296.92;;;282.23;;
63050;SDS011;49136;47.416;19.402;2024-02-28T03:22:39;296.25;;;281.48;;
63050;SDS011;49136;47.416;19.402;2024-02-28T03:25:05;322.15;;;305.73;;
63050;SDS011;49136;47.416;19.402;2024-02-28T03:27:30;308.88;;;293.42;;
63050;SDS011;49136;47.416;19.402;2024-02-28T03:29:56;324.90;;;308.45;;
63050;SDS011;49136;47.416;19.402;2024-02-28T03:32:21;327.38;;;311.00;;
63050;SDS011;49136;47.416;19.402;2024-02-28T03:34:47;305.67;;;290.27;;
63050;SDS011;49136;47.416;19.402;2024-02-28T03:37:13;317.30;;;301.25;;
63050;SDS011;49136;47.416;19.402;2024-02-28T03:39:38;330.13;;;313.40;;
63050;SDS011;49136;47.416;19.402;2024-02-28T03:42:04;297.02;;;282.15;;
63050;SDS011;49136;47.416;19.402;2024-02-28T03:44:29;306.83;;;291.15;;
63050;SDS011;49136;47.416;19.402;2024-02-28T03:46:55;315.88;;;299.95;;
63050;SDS011;49136;47.416;19.402;2024-02-28T03:49:20;318.42;;;302.23;;
63050;SDS011;49136;47.416;19.402;2024-02-28T03:51:45;318.10;;;301.70;;
63050;SDS011;49136;47.416;19.402;2024-02-28T03:54:11;320.67;;;304.48;;
63050;SDS011;49136;47.416;19.402;2024-02-28T03:56:36;314.55;;;298.65;;
63050;SDS011;49136;47.416;19.402;2024-02-28T03:59:01;327.52;;;310.50;;
63050;SDS011;49136;47.416;19.402;2024-02-28T04:01:28;307.80;;;292.08;;
63050;SDS011;49136;47.416;19.402;2024-02-28T04:03:54;325.48;;;308.90;;
63050;SDS011;49136;47.416;19.402;2024-02-28T04:06:20;315.20;;;297.98;;
63050;SDS011;49136;47.416;19.402;2024-02-28T04:08:45;319.42;;;303.30;;
63050;SDS011;49136;47.416;19.402;2024-02-28T04:11:10;316.30;;;300.35;;
63050;SDS011;49136;47.416;19.402;2024-02-28T04:13:36;337.02;;;319.98;;
63050;SDS011;49136;47.416;19.402;2024-02-28T04:16:02;327.75;;;311.13;;
63050;SDS011;49136;47.416;19.402;2024-02-28T04:18:28;328.85;;;312.10;;
63050;SDS011;49136;47.416;19.402;2024-02-28T04:20:54;320.10;;;303.80;;
63050;SDS011;49136;47.416;19.402;2024-02-28T04:23:20;325.92;;;309.42;;
63050;SDS011;49136;47.416;19.402;2024-02-28T04:25:45;319.58;;;303.38;;
63050;SDS011;49136;47.416;19.402;2024-02-28T04:28:10;328.60;;;311.90;;
63050;SDS011;49136;47.416;19.402;2024-02-28T04:30:36;314.75;;;298.77;;
63050;SDS011;49136;47.416;19.402;2024-02-28T04:33:01;311.52;;;295.70;;
63050;SDS011;49136;47.416;19.402;2024-02-28T04:35:27;314.42;;;298.48;;
63050;SDS011;49136;47.416;19.402;2024-02-28T04:37:53;333.08;;;315.92;;
63050;SDS011;49136;47.416;19.402;2024-02-28T04:40:18;320.63;;;304.08;;
63050;SDS011;49136;47.416;19.402;2024-02-28T04:42:43;321.45;;;305.05;;
63050;SDS011;49136;47.416;19.402;2024-02-28T04:45:09;337.50;;;320.33;;
63050;SDS011;49136;47.416;19.402;2024-02-28T04:47:34;344.13;;;326.65;;
63050;SDS011;49136;47.416;19.402;2024-02-28T04:50:02;312.50;;;296.67;;
63050;SDS011;49136;47.416;19.402;2024-02-28T04:52:30;319.27;;;303.08;;
63050;SDS011;49136;47.416;19.402;2024-02-28T04:54:55;329.63;;;312.92;;
63050;SDS011;49136;47.416;19.402;2024-02-28T04:57:24;339.27;;;321.60;;
63050;SDS011;49136;47.416;19.402;2024-02-28T04:59:53;334.92;;;317.48;;
63050;SDS011;49136;47.416;19.402;2024-02-28T05:02:19;308.77;;;293.15;;
63050;SDS011;49136;47.416;19.402;2024-02-28T05:04:47;346.52;;;328.80;;
63050;SDS011;49136;47.416;19.402;2024-02-28T05:07:15;299.35;;;284.05;;
63050;SDS011;49136;47.416;19.402;2024-02-28T05:09:41;320.30;;;304.20;;
63050;SDS011;49136;47.416;19.402;2024-02-28T05:12:07;313.77;;;298.02;;
63050;SDS011;49136;47.416;19.402;2024-02-28T05:14:33;314.63;;;298.83;;
63050;SDS011;49136;47.416;19.402;2024-02-28T05:16:58;318.38;;;302.23;;
63050;SDS011;49136;47.416;19.402;2024-02-28T05:19:24;334.52;;;317.40;;
63050;SDS011;49136;47.416;19.402;2024-02-28T05:21:50;357.25;;;338.52;;
63050;SDS011;49136;47.416;19.402;2024-02-28T05:24:16;348.15;;;330.13;;
63050;SDS011;49136;47.416;19.402;2024-02-28T05:26:43;337.75;;;320.67;;
63050;SDS011;49136;47.416;19.402;2024-02-28T05:29:08;449.60;;;424.35;;
63050;SDS011;49136;47.416;19.402;2024-02-28T05:31:33;347.63;;;329.65;;
63050;SDS011;49136;47.416;19.402;2024-02-28T05:33:59;365.52;;;346.48;;
63050;SDS011;49136;47.416;19.402;2024-02-28T05:36:26;353.80;;;334.52;;
63050;SDS011;49136;47.416;19.402;2024-02-28T05:38:53;341.50;;;323.98;;
63050;SDS011;49136;47.416;19.402;2024-02-28T05:41:20;349.55;;;331.58;;
63050;SDS011;49136;47.416;19.402;2024-02-28T05:43:46;342.88;;;325.27;;
63050;SDS011;49136;47.416;19.402;2024-02-28T05:46:12;322.67;;;306.23;;
63050;SDS011;49136;47.416;19.402;2024-02-28T05:48:42;339.45;;;322.20;;
63050;SDS011;49136;47.416;19.402;2024-02-28T05:51:10;336.65;;;319.13;;
63050;SDS011;49136;47.416;19.402;2024-02-28T05:53:36;316.42;;;300.45;;
63050;SDS011;49136;47.416;19.402;2024-02-28T05:56:03;342.33;;;324.63;;
63050;SDS011;49136;47.416;19.402;2024-02-28T05:58:45;312.10;;;296.27;;
63050;SDS011;49136;47.416;19.402;2024-02-28T06:01:12;278.65;;;264.83;;
63050;SDS011;49136;47.416;19.402;2024-02-28T06:03:41;301.05;;;285.77;;
63050;SDS011;49136;47.416;19.402;2024-02-28T06:06:06;325.85;;;308.77;;
63050;SDS011;49136;47.416;19.402;2024-02-28T06:08:32;329.90;;;313.27;;
63050;SDS011;49136;47.416;19.402;2024-02-28T06:10:58;337.10;;;319.77;;
63050;SDS011;49136;47.416;19.402;2024-02-28T06:13:24;326.65;;;310.08;;
63050;SDS011;49136;47.416;19.402;2024-02-28T06:15:49;315.13;;;298.83;;
63050;SDS011;49136;47.416;19.402;2024-02-28T06:18:15;378.00;;;358.25;;
63050;SDS011;49136;47.416;19.402;2024-02-28T06:20:40;287.63;;;272.77;;
63050;SDS011;49136;47.416;19.402;2024-02-28T06:23:07;323.90;;;307.40;;
63050;SDS011;49136;47.416;19.402;2024-02-28T06:25:32;444.38;;;410.30;;
63050;SDS011;49136;47.416;19.402;2024-02-28T06:27:59;323.88;;;306.55;;
63050;SDS011;49136;47.416;19.402;2024-02-28T06:30:25;341.75;;;324.10;;
63050;SDS011;49136;47.416;19.402;2024-02-28T06:32:50;345.17;;;326.70;;
63050;SDS011;49136;47.416;19.402;2024-02-28T06:35:16;421.63;;;397.92;;
63050;SDS011;49136;47.416;19.402;2024-02-28T06:37:42;306.90;;;291.10;;
63050;SDS011;49136;47.416;19.402;2024-02-28T06:40:09;350.88;;;332.42;;
63050;SDS011;49136;47.416;19.402;2024-02-28T06:42:34;315.10;;;297.67;;
63050;SDS011;49136;47.416;19.402;2024-02-28T06:45:01;274.23;;;260.10;;
63050;SDS011;49136;47.416;19.402;2024-02-28T06:47:27;313.52;;;297.38;;
63050;SDS011;49136;47.416;19.402;2024-02-28T06:49:53;356.85;;;337.65;;
63050;SDS011;49136;47.416;19.402;2024-02-28T06:52:18;349.15;;;330.65;;
63050;SDS011;49136;47.416;19.402;2024-02-28T06:54:44;316.27;;;300.15;;
63050;SDS011;49136;47.416;19.402;2024-02-28T06:57:09;331.83;;;314.75;;
63050;SDS011;49136;47.416;19.402;2024-02-28T06:59:36;308.95;;;292.45;;
63050;SDS011;49136;47.416;19.402;2024-02-28T07:02:02;438.35;;;412.15;;
63050;SDS011;49136;47.416;19.402;2024-02-28T07:04:27;317.70;;;301.10;;
63050;SDS011;49136;47.416;19.402;2024-02-28T07:06:54;345.40;;;327.60;;
63050;SDS011;49136;47.416;19.402;2024-02-28T07:09:19;348.67;;;330.15;;
63050;SDS011;49136;47.416;19.402;2024-02-28T07:11:45;454.50;;;403.80;;
63050;SDS011;49136;47.416;19.402;2024-02-28T07:14:13;410.15;;;370.85;;
63050;SDS011;49136;47.416;19.402;2024-02-28T07:16:39;308.13;;;291.73;;
63050;SDS011;49136;47.416;19.402;2024-02-28T07:19:04;338.08;;;320.65;;
63050;SDS011;49136;47.416;19.402;2024-02-28T07:21:29;338.80;;;320.83;;
63050;SDS011;49136;47.416;19.402;2024-02-28T07:23:57;391.90;;;370.48;;
63050;SDS011;49136;47.416;19.402;2024-02-28T07:26:22;333.63;;;316.17;;
63050;SDS011;49136;47.416;19.402;2024-02-28T07:28:47;350.13;;;331.50;;
63050;SDS011;49136;47.416;19.402;2024-02-28T07:31:17;323.63;;;306.95;;
63050;SDS011;49136;47.416;19.402;2024-02-28T07:33:43;311.20;;;295.33;;
63050;SDS011;49136;47.416;19.402;2024-02-28T07:36:09;318.50;;;301.98;;
63050;SDS011;49136;47.416;19.402;2024-02-28T07:38:35;318.33;;;302.00;;
63050;SDS011;49136;47.416;19.402;2024-02-28T07:41:00;322.58;;;305.65;;
63050;SDS011;49136;47.416;19.402;2024-02-28T07:43:26;307.52;;;290.30;;
63050;SDS011;49136;47.416;19.402;2024-02-28T07:45:52;327.27;;;310.30;;
63050;SDS011;49136;47.416;19.402;2024-02-28T07:48:18;290.75;;;275.80;;
63050;SDS011;49136;47.416;19.402;2024-02-28T07:50:46;376.20;;;355.83;;
63050;SDS011;49136;47.416;19.402;2024-02-28T07:53:16;319.95;;;303.38;;
63050;SDS011;49136;47.416;19.402;2024-02-28T07:55:42;285.70;;;270.58;;
63050;SDS011;49136;47.416;19.402;2024-02-28T07:58:08;251.65;;;234.57;;
63050;SDS011;49136;47.416;19.402;2024-02-28T08:00:34;319.33;;;302.00;;
63050;SDS011;49136;47.416;19.402;2024-02-28T08:02:59;280.08;;;262.70;;
63050;SDS011;49136;47.416;19.402;2024-02-28T08:05:25;317.13;;;300.05;;
63050;SDS011;49136;47.416;19.402;2024-02-28T08:07:50;237.18;;;225.13;;
63050;SDS011;49136;47.416;19.402;2024-02-28T08:10:16;252.07;;;238.98;;
63050;SDS011;49136;47.416;19.402;2024-02-28T08:12:41;269.73;;;252.18;;
63050;SDS011;49136;47.416;19.402;2024-02-28T08:15:07;137.93;;;130.60;;
63050;SDS011;49136;47.416;19.402;2024-02-28T08:17:32;145.18;;;137.98;;
63050;SDS011;49136;47.416;19.402;2024-02-28T08:19:58;148.10;;;140.88;;
63050;SDS011;49136;47.416;19.402;2024-02-28T08:22:24;105.30;;;100.25;;
63050;SDS011;49136;47.416;19.402;2024-02-28T08:24:53;117.03;;;110.75;;
63050;SDS011;49136;47.416;19.402;2024-02-28T08:27:21;111.20;;;105.75;;
63050;SDS011;49136;47.416;19.402;2024-02-28T08:29:48;81.88;;;77.88;;
63050;SDS011;49136;47.416;19.402;2024-02-28T08:32:14;72.75;;;69.07;;
63050;SDS011;49136;47.416;19.402;2024-02-28T08:34:43;85.25;;;80.85;;
63050;SDS011;49136;47.416;19.402;2024-02-28T08:37:09;79.65;;;75.38;;
63050;SDS011;49136;47.416;19.402;2024-02-28T08:39:34;52.63;;;50.00;;
63050;SDS011;49136;47.416;19.402;2024-02-28T08:42:00;51.33;;;48.92;;
63050;SDS011;49136;47.416;19.402;2024-02-28T08:44:25;54.72;;;52.08;;
63050;SDS011;49136;47.416;19.402;2024-02-28T08:46:51;59.28;;;56.38;;
63050;SDS011;49136;47.416;19.402;2024-02-28T08:49:16;58.72;;;55.83;;
63050;SDS011;49136;47.416;19.402;2024-02-28T08:51:42;56.40;;;53.72;;
63050;SDS011;49136;47.416;19.402;2024-02-28T08:54:07;51.50;;;49.08;;
63050;SDS011;49136;47.416;19.402;2024-02-28T08:56:33;62.15;;;58.80;;
63050;SDS011;49136;47.416;19.402;2024-02-28T08:58:59;46.67;;;44.35;;
63050;SDS011;49136;47.416;19.402;2024-02-28T09:01:24;69.35;;;65.30;;
63050;SDS011;49136;47.416;19.402;2024-02-28T09:03:50;55.45;;;52.75;;
63050;SDS011;49136;47.416;19.402;2024-02-28T09:06:15;58.40;;;55.40;;
63050;SDS011;49136;47.416;19.402;2024-02-28T09:08:41;47.92;;;45.30;;
63050;SDS011;49136;47.416;19.402;2024-02-28T09:11:06;80.13;;;75.90;;
63050;SDS011;49136;47.416;19.402;2024-02-28T09:13:32;67.28;;;63.83;;
63050;SDS011;49136;47.416;19.402;2024-02-28T09:15:57;55.58;;;52.72;;
63050;SDS011;49136;47.416;19.402;2024-02-28T09:18:23;62.92;;;59.42;;
63050;SDS011;49136;47.416;19.402;2024-02-28T09:20:48;72.47;;;68.60;;
63050;SDS011;49136;47.416;19.402;2024-02-28T09:23:14;67.15;;;63.72;;
63050;SDS011;49136;47.416;19.402;2024-02-28T09:25:39;65.32;;;62.00;;
63050;SDS011;49136;47.416;19.402;2024-02-28T09:28:05;73.03;;;69.25;;
63050;SDS011;49136;47.416;19.402;2024-02-28T09:30:31;65.90;;;62.58;;
63050;SDS011;49136;47.416;19.402;2024-02-28T09:32:56;97.80;;;92.10;;
63050;SDS011;49136;47.416;19.402;2024-02-28T09:35:22;159.55;;;149.95;;
63050;SDS011;49136;47.416;19.402;2024-02-28T09:37:47;112.50;;;105.95;;
63050;SDS011;49136;47.416;19.402;2024-02-28T09:40:12;104.28;;;98.22;;
63050;SDS011;49136;47.416;19.402;2024-02-28T09:42:38;108.57;;;102.15;;
63050;SDS011;49136;47.416;19.402;2024-02-28T09:45:04;113.50;;;107.05;;
63050;SDS011;49136;47.416;19.402;2024-02-28T09:47:33;198.63;;;186.35;;
63050;SDS011;49136;47.416;19.402;2024-02-28T09:49:58;138.23;;;129.85;;
63050;SDS011;49136;47.416;19.402;2024-02-28T09:52:26;121.97;;;114.85;;
63050;SDS011;49136;47.416;19.402;2024-02-28T09:54:53;173.57;;;162.57;;
63050;SDS011;49136;47.416;19.402;2024-02-28T09:57:18;130.90;;;123.25;;
63050;SDS011;49136;47.416;19.402;2024-02-28T09:59:44;150.65;;;141.43;;
63050;SDS011;49136;47.416;19.402;2024-02-28T10:02:10;222.77;;;208.07;;
63050;SDS011;49136;47.416;19.402;2024-02-28T10:04:37;239.98;;;223.23;;
63050;SDS011;49136;47.416;19.402;2024-02-28T10:07:10;186.02;;;172.93;;
63050;SDS011;49136;47.416;19.402;2024-02-28T10:09:40;161.30;;;151.38;;
63050;SDS011;49136;47.416;19.402;2024-02-28T10:12:08;137.93;;;129.27;;
63050;SDS011;49136;47.416;19.402;2024-02-28T10:14:33;174.25;;;163.52;;
63050;SDS011;49136;47.416;19.402;2024-02-28T10:16:59;144.57;;;135.10;;
63050;SDS011;49136;47.416;19.402;2024-02-28T10:19:24;108.90;;;103.13;;
63050;SDS011;49136;47.416;19.402;2024-02-28T10:21:50;159.43;;;149.88;;
63050;SDS011;49136;47.416;19.402;2024-02-28T10:24:15;116.93;;;110.68;;
63050;SDS011;49136;47.416;19.402;2024-02-28T10:26:42;312.48;;;264.15;;
63050;SDS011;49136;47.416;19.402;2024-02-28T10:29:11;158.63;;;148.95;;
63050;SDS011;49136;47.416;19.402;2024-02-28T10:31:37;140.35;;;131.77;;
63050;SDS011;49136;47.416;19.402;2024-02-28T10:34:02;135.30;;;127.28;;
63050;SDS011;49136;47.416;19.402;2024-02-28T10:36:30;141.00;;;132.43;;
63050;SDS011;49136;47.416;19.402;2024-02-28T10:38:57;77.22;;;73.53;;
63050;SDS011;49136;47.416;19.402;2024-02-28T10:41:24;142.07;;;133.13;;
63050;SDS011;49136;47.416;19.402;2024-02-28T10:43:51;98.70;;;93.40;;
63050;SDS011;49136;47.416;19.402;2024-02-28T10:46:16;143.65;;;135.60;;
63050;SDS011;49136;47.416;19.402;2024-02-28T10:48:45;238.88;;;221.05;;
63050;SDS011;49136;47.416;19.402;2024-02-28T10:51:12;145.48;;;136.43;;
63050;SDS011;49136;47.416;19.402;2024-02-28T10:53:41;235.50;;;219.02;;
63050;SDS011;49136;47.416;19.402;2024-02-28T10:56:08;131.88;;;123.45;;
63050;SDS011;49136;47.416;19.402;2024-02-28T10:58:36;110.00;;;103.75;;
63050;SDS011;49136;47.416;19.402;2024-02-28T11:01:04;149.25;;;139.82;;
63050;SDS011;49136;47.416;19.402;2024-02-28T11:03:31;168.23;;;158.13;;
63050;SDS011;49136;47.416;19.402;2024-02-28T11:05:56;159.32;;;149.90;;
63050;SDS011;49136;47.416;19.402;2024-02-28T11:08:23;166.32;;;154.00;;
63050;SDS011;49136;47.416;19.402;2024-02-28T11:10:56;74.90;;;71.22;;
63050;SDS011;49136;47.416;19.402;2024-02-28T11:13:23;306.63;;;284.77;;
63050;SDS011;49136;47.416;19.402;2024-02-28T11:15:52;329.45;;;306.67;;
63050;SDS011;49136;47.416;19.402;2024-02-28T11:18:18;303.13;;;281.33;;
63050;SDS011;49136;47.416;19.402;2024-02-28T11:20:44;327.75;;;303.83;;
63050;SDS011;49136;47.416;19.402;2024-02-28T11:23:12;381.00;;;354.17;;
63050;SDS011;49136;47.416;19.402;2024-02-28T11:25:39;293.27;;;275.02;;
63050;SDS011;49136;47.416;19.402;2024-02-28T11:28:08;272.70;;;252.38;;
63050;SDS011;49136;47.416;19.402;2024-02-28T11:30:33;335.33;;;310.38;;
63050;SDS011;49136;47.416;19.402;2024-02-28T11:32:59;341.70;;;316.90;;
63050;SDS011;49136;47.416;19.402;2024-02-28T11:35:28;384.38;;;356.23;;
63050;SDS011;49136;47.416;19.402;2024-02-28T11:37:56;342.90;;;318.70;;
63050;SDS011;49136;47.416;19.402;2024-02-28T11:40:25;337.65;;;313.55;;
63050;SDS011;49136;47.416;19.402;2024-02-28T11:42:51;367.27;;;341.20;;
63050;SDS011;49136;47.416;19.402;2024-02-28T11:45:17;394.77;;;366.10;;
63050;SDS011;49136;47.416;19.402;2024-02-28T11:47:43;386.60;;;358.23;;
63050;SDS011;49136;47.416;19.402;2024-02-28T11:50:09;402.38;;;373.95;;
63050;SDS011;49136;47.416;19.402;2024-02-28T11:52:35;391.50;;;363.73;;
63050;SDS011;49136;47.416;19.402;2024-02-28T11:55:01;329.08;;;306.67;;
63050;SDS011;49136;47.416;19.402;2024-02-28T11:57:27;216.65;;;202.35;;
63050;SDS011;49136;47.416;19.402;2024-02-28T11:59:54;289.25;;;270.25;;
63050;SDS011;49136;47.416;19.402;2024-02-28T12:02:19;199.43;;;186.15;;
63050;SDS011;49136;47.416;19.402;2024-02-28T12:04:50;210.60;;;197.48;;
63050;SDS011;49136;47.416;19.402;2024-02-28T12:07:16;189.77;;;177.75;;
63050;SDS011;49136;47.416;19.402;2024-02-28T12:09:41;127.70;;;120.55;;
63050;SDS011;49136;47.416;19.402;2024-02-28T12:12:09;266.63;;;248.23;;
63050;SDS011;49136;47.416;19.402;2024-02-28T12:14:37;249.52;;;233.70;;
63050;SDS011;49136;47.416;19.402;2024-02-28T12:17:08;227.98;;;210.95;;
63050;SDS011;49136;47.416;19.402;2024-02-28T12:19:34;284.65;;;266.60;;
63050;SDS011;49136;47.416;19.402;2024-02-28T12:21:59;230.90;;;214.48;;
63050;SDS011;49136;47.416;19.402;2024-02-28T12:24:25;244.65;;;227.77;;
63050;SDS011;49136;47.416;19.402;2024-02-28T12:26:51;360.38;;;334.83;;
63050;SDS011;49136;47.416;19.402;2024-02-28T12:29:16;261.85;;;244.00;;
63050;SDS011;49136;47.416;19.402;2024-02-28T12:31:42;457.38;;;422.98;;
63050;SDS011;49136;47.416;19.402;2024-02-28T12:34:07;468.25;;;432.70;;
63050;SDS011;49136;47.416;19.402;2024-02-28T12:36:33;453.80;;;419.67;;
63050;SDS011;49136;47.416;19.402;2024-02-28T12:38:59;472.83;;;437.30;;
63050;SDS011;49136;47.416;19.402;2024-02-28T12:41:25;438.63;;;404.48;;
63050;SDS011;49136;47.416;19.402;2024-02-28T12:43:51;460.25;;;423.85;;
63050;SDS011;49136;47.416;19.402;2024-02-28T12:46:16;474.33;;;439.77;;
63050;SDS011;49136;47.416;19.402;2024-02-28T12:48:42;388.25;;;359.73;;
63050;SDS011;49136;47.416;19.402;2024-02-28T12:51:08;395.83;;;366.33;;
63050;SDS011;49136;47.416;19.402;2024-02-28T12:53:36;379.60;;;352.00;;
63050;SDS011;49136;47.416;19.402;2024-02-28T12:56:01;469.88;;;434.13;;
63050;SDS011;49136;47.416;19.402;2024-02-28T12:58:27;389.48;;;360.73;;
63050;SDS011;49136;47.416;19.402;2024-02-28T13:00:53;356.90;;;331.40;;
63050;SDS011;49136;47.416;19.402;2024-02-28T13:03:18;380.52;;;352.13;;
63050;SDS011;49136;47.416;19.402;2024-02-28T13:05:44;399.55;;;369.98;;
63050;SDS011;49136;47.416;19.402;2024-02-28T13:08:09;356.17;;;330.38;;
63050;SDS011;49136;47.416;19.402;2024-02-28T13:10:35;419.30;;;386.48;;
63050;SDS011;49136;47.416;19.402;2024-02-28T13:13:04;413.30;;;381.55;;
63050;SDS011;49136;47.416;19.402;2024-02-28T13:15:31;446.48;;;411.52;;
63050;SDS011;49136;47.416;19.402;2024-02-28T13:17:56;436.92;;;401.77;;
63050;SDS011;49136;47.416;19.402;2024-02-28T13:20:22;466.90;;;430.75;;
63050;SDS011;49136;47.416;19.402;2024-02-28T13:22:47;444.27;;;409.60;;
63050;SDS011;49136;47.416;19.402;2024-02-28T13:25:13;488.83;;;451.35;;
63050;SDS011;49136;47.416;19.402;2024-02-28T13:30:09;388.73;;;360.65;;
63050;SDS011;49136;47.416;19.402;2024-02-28T13:32:35;379.55;;;350.88;;
63050;SDS011;49136;47.416;19.402;2024-02-28T13:35:01;403.17;;;371.98;;
63050;SDS011;49136;47.416;19.402;2024-02-28T13:37:26;451.92;;;419.20;;
63050;SDS011;49136;47.416;19.402;2024-02-28T13:39:52;417.85;;;388.08;;
63050;SDS011;49136;47.416;19.402;2024-02-28T13:42:17;435.08;;;402.02;;